createdAt,value
2019-02-25T00:00:55.710Z,100095.00
2019-02-25T00:03:25.184Z,100085.98
2019-02-25T00:05:54.631Z,100092.91
2019-02-25T00:08:24.128Z,100094.41
2019-02-25T00:10:53.598Z,100088.65
2019-02-25T00:13:23.092Z,100098.72
2019-02-25T00:15:52.518Z,100098.67
2019-02-25T00:18:21.973Z,100088.59
2019-02-25T00:20:51.425Z,100096.44
2019-02-25T00:23:20.977Z,100095.89
2019-02-25T00:25:50.432Z,100101.25
2019-02-25T00:28:19.921Z,100097.96
2019-02-25T00:30:49.369Z,100100.94
2019-02-25T00:33:18.831Z,100096.90
2019-02-25T00:35:48.353Z,100099.67
2019-02-25T00:38:17.834Z,100105.70
2019-02-25T00:40:47.320Z,100098.41
2019-02-25T00:43:16.840Z,100107.52
2019-02-25T00:45:46.299Z,100113.07
2019-02-25T00:48:15.793Z,100118.03
2019-02-25T00:50:45.264Z,100115.95
2019-02-25T00:53:14.755Z,100120.11
2019-02-25T00:55:44.225Z,100119.56
2019-02-25T00:58:13.796Z,100122.69
2019-02-25T01:00:43.253Z,100122.69
2019-02-25T01:03:12.724Z,100132.44
2019-02-25T01:05:42.206Z,100138.77
2019-02-25T01:08:11.662Z,100128.78
2019-02-25T01:10:41.141Z,100132.82
2019-02-25T01:13:10.600Z,100141.20
2019-02-25T01:15:40.126Z,100133.55
2019-02-25T01:18:09.628Z,100135.07
2019-02-25T01:20:39.134Z,100141.05
2019-02-25T01:23:08.611Z,100139.14
2019-02-25T01:25:38.091Z,100126.73
2019-02-25T01:28:07.570Z,100129.16
2019-02-25T01:30:37.044Z,100129.59
2019-02-25T01:33:06.498Z,100135.42
2019-02-25T01:35:35.975Z,100139.84
2019-02-25T01:38:05.567Z,100134.98
2019-02-25T01:40:35.038Z,100132.21
2019-02-25T01:43:04.525Z,100132.09
2019-02-25T01:45:33.979Z,100133.58
2019-02-25T01:48:03.483Z,100132.45
2019-02-25T01:50:32.945Z,100123.56
2019-02-25T01:53:02.394Z,100127.77
2019-02-25T01:55:31.891Z,100133.77
2019-02-25T01:58:01.355Z,100132.64
2019-02-25T02:00:30.887Z,100127.51
2019-02-25T02:03:00.345Z,100129.20
2019-02-25T02:05:29.931Z,100126.61
2019-02-25T02:07:59.420Z,100123.98
2019-02-25T02:10:28.911Z,100116.52
2019-02-25T02:12:58.356Z,100115.77
2019-02-25T02:15:27.949Z,100110.06
2019-02-25T02:17:57.404Z,100117.34
2019-02-25T02:20:26.961Z,100117.89
2019-02-25T02:22:56.421Z,100110.41
2019-02-25T02:25:25.909Z,100108.58
2019-02-25T02:27:55.367Z,100116.39
2019-02-25T02:30:24.824Z,100119.13
2019-02-25T02:32:54.321Z,100112.38
2019-02-25T02:35:23.776Z,100117.00
2019-02-25T02:37:53.267Z,100111.33
2019-02-25T02:40:22.755Z,100108.96
2019-02-25T02:42:54.138Z,100119.88
2019-02-25T02:45:30.006Z,100106.93
2019-02-25T02:48:15.514Z,100104.93
2019-02-25T02:50:44.986Z,100105.00
2019-02-25T02:53:14.448Z,100094.72
2019-02-25T02:55:43.927Z,100097.86
2019-02-25T02:58:13.386Z,100095.81
2019-02-25T03:00:42.905Z,100093.66
2019-02-25T03:03:12.349Z,100093.05
2019-02-25T03:05:42.019Z,100096.25
2019-02-25T03:08:11.511Z,100096.41
2019-02-25T03:10:40.976Z,100088.27
2019-02-25T03:13:10.576Z,100088.45
2019-02-25T03:15:40.051Z,100082.64
2019-02-25T03:18:09.516Z,100077.30
2019-02-25T03:20:39.007Z,100088.37
2019-02-25T03:23:08.479Z,100088.38
2019-02-25T03:25:37.975Z,100085.31
2019-02-25T03:28:07.442Z,100092.58
2019-02-25T03:30:36.905Z,100091.98
2019-02-25T03:33:06.399Z,100088.24
2019-02-25T03:35:35.887Z,100095.03
2019-02-25T03:38:05.753Z,100093.66
2019-02-25T03:40:35.210Z,100096.64
2019-02-25T03:43:04.670Z,100107.12
2019-02-25T03:45:34.143Z,100105.25
2019-02-25T03:48:03.713Z,100101.80
2019-02-25T03:50:33.201Z,100090.12
2019-02-25T03:53:02.654Z,100091.77
2019-02-25T03:55:32.204Z,100088.47
2019-02-25T03:58:01.704Z,100090.95
2019-02-25T04:00:31.258Z,100089.62
2019-02-25T04:03:00.854Z,100090.41
2019-02-25T04:05:30.329Z,100091.01
2019-02-25T04:07:59.813Z,100093.25
2019-02-25T04:10:29.407Z,100093.17
2019-02-25T04:12:58.855Z,100100.56
2019-02-25T04:15:33.564Z,100088.48
2019-02-25T04:18:03.134Z,100089.19
2019-02-25T04:20:32.719Z,100098.91
2019-02-25T04:23:02.179Z,100098.28
2019-02-25T04:25:31.641Z,100100.20
2019-02-25T04:28:01.251Z,100101.36
2019-02-25T04:30:30.720Z,100102.63
2019-02-25T04:33:00.232Z,100095.24
2019-02-25T04:35:29.695Z,100101.30
2019-02-25T04:37:59.198Z,100106.98
2019-02-25T04:40:28.675Z,100104.52
2019-02-25T04:42:58.122Z,100118.92
2019-02-25T04:45:27.606Z,100119.58
2019-02-25T04:47:57.069Z,100113.55
2019-02-25T04:50:26.686Z,100115.88
2019-02-25T04:52:56.138Z,100115.05
2019-02-25T04:55:26.324Z,100122.53
2019-02-25T04:57:55.855Z,100126.73
2019-02-25T05:00:25.336Z,100125.25
2019-02-25T05:02:54.820Z,100121.73
2019-02-25T05:05:24.281Z,100123.85
2019-02-25T05:07:53.807Z,100120.04
2019-02-25T05:10:23.534Z,100113.01
2019-02-25T05:12:58.318Z,100104.69
2019-02-25T05:15:28.071Z,100102.81
2019-02-25T05:17:57.567Z,100091.87
2019-02-25T05:20:27.086Z,100096.55
2019-02-25T05:22:56.702Z,100098.42
2019-02-25T05:25:26.526Z,100103.52
2019-02-25T05:27:55.983Z,100101.90
2019-02-25T05:30:25.460Z,100104.70
2019-02-25T05:32:54.951Z,100085.73
2019-02-25T05:35:24.517Z,100085.61
2019-02-25T05:37:54.028Z,100091.02
2019-02-25T05:40:23.545Z,100091.62
2019-02-25T05:42:53.046Z,100085.03
2019-02-25T05:45:22.587Z,100076.41
2019-02-25T05:47:52.058Z,100079.66
2019-02-25T05:50:21.728Z,100077.76
2019-02-25T05:52:51.278Z,100070.44
2019-02-25T05:55:20.770Z,100074.26
2019-02-25T05:57:50.363Z,100079.17
2019-02-25T06:00:22.317Z,100084.77
2019-02-25T06:02:51.774Z,100086.66
2019-02-25T06:05:21.259Z,100087.27
2019-02-25T06:07:50.855Z,100092.11
2019-02-25T06:10:20.360Z,100093.52
2019-02-25T06:12:50.095Z,100096.20
2019-02-25T06:15:19.565Z,100093.52
2019-02-25T06:17:49.055Z,100094.36
2019-02-25T06:20:18.580Z,100099.08
2019-02-25T06:22:48.085Z,100096.95
2019-02-25T06:25:17.725Z,100100.98
2019-02-25T06:27:47.237Z,100107.91
2019-02-25T06:30:17.873Z,100110.63
2019-02-25T06:32:47.328Z,100110.75
2019-02-25T06:35:16.852Z,100111.36
2019-02-25T06:37:46.495Z,100117.81
2019-02-25T06:40:16.402Z,100119.91
2019-02-25T06:42:45.917Z,100118.82
2019-02-25T06:45:17.074Z,100113.93
2019-02-25T06:47:46.803Z,100116.75
2019-02-25T06:50:16.474Z,100117.27
2019-02-25T06:52:45.962Z,100125.06
2019-02-25T06:55:15.942Z,100126.51
2019-02-25T06:57:45.414Z,100123.22
2019-02-25T07:00:17.198Z,100126.33
2019-02-25T07:02:46.861Z,100125.09
2019-02-25T07:05:28.213Z,100122.44
2019-02-25T07:08:10.707Z,100116.30
2019-02-25T07:10:53.865Z,100114.05
2019-02-25T07:13:57.437Z,100114.52
2019-02-25T07:17:04.211Z,100118.14
2019-02-25T07:20:01.715Z,100112.63
2019-02-25T07:22:48.824Z,100112.02
2019-02-25T07:25:52.561Z,100108.95
2019-02-25T07:28:46.209Z,100113.64
2019-02-25T07:31:35.292Z,100109.94
2019-02-25T07:34:23.750Z,100108.97
2019-02-25T07:36:59.857Z,100111.59
2019-02-25T07:39:57.641Z,100115.02
2019-02-25T07:42:40.403Z,100118.70
2019-02-25T07:45:30.474Z,100118.64
2019-02-25T07:48:05.610Z,100118.69
2019-02-25T07:50:57.047Z,100129.66
2019-02-25T07:53:51.018Z,100132.81
2019-02-25T07:56:54.866Z,100137.19
2019-02-25T07:59:32.843Z,100136.73
2019-02-25T08:02:21.206Z,100141.41
2019-02-25T08:05:07.384Z,100146.53
2019-02-25T08:07:55.770Z,100145.67
2019-02-25T08:10:48.376Z,100133.41
2019-02-25T08:13:26.970Z,100134.70
2019-02-25T08:16:12.269Z,100138.91
2019-02-25T08:19:03.614Z,100131.48
2019-02-25T08:21:50.712Z,100127.98
2019-02-25T08:24:34.634Z,100136.17
2019-02-25T08:27:16.032Z,100129.53
2019-02-25T08:29:53.570Z,100124.41
2019-02-25T08:32:30.207Z,100125.61
2019-02-25T08:35:27.725Z,100127.91
2019-02-25T08:38:11.406Z,100118.77
2019-02-25T08:41:19.939Z,100124.67
2019-02-25T08:44:23.807Z,100123.57
2019-02-25T08:46:58.642Z,100120.00
2019-02-25T08:49:53.219Z,100120.76
2019-02-25T08:52:22.687Z,100118.60
2019-02-25T08:54:52.137Z,100127.44
2019-02-25T08:57:21.566Z,100130.11
2019-02-25T08:59:51.074Z,100129.11
2019-02-25T09:02:20.473Z,100128.41
2019-02-25T09:04:49.863Z,100121.86
2019-02-25T09:07:19.294Z,100123.38
2019-02-25T09:09:48.655Z,100127.48
2019-02-25T09:12:18.122Z,100126.45
2019-02-25T09:14:47.526Z,100127.17
2019-02-25T09:17:16.955Z,100124.23
2019-02-25T09:19:46.347Z,100130.16
2019-02-25T09:22:15.724Z,100133.45
2019-02-25T09:24:45.124Z,100128.74
2019-02-25T09:27:14.545Z,100124.56
2019-02-25T09:29:44.967Z,100121.00
2019-02-25T09:32:14.455Z,100117.20
2019-02-25T09:34:44.205Z,100123.17
2019-02-25T09:37:13.585Z,100119.01
2019-02-25T09:39:42.994Z,100118.03
2019-02-25T09:42:12.445Z,100114.39
2019-02-25T09:44:41.815Z,100121.80
2019-02-25T09:47:11.308Z,100123.51
2019-02-25T09:49:40.704Z,100129.89
2019-02-25T09:52:10.140Z,100127.98
2019-02-25T09:54:39.553Z,100122.84
2019-02-25T09:57:09.304Z,100117.89
2019-02-25T09:59:38.734Z,100116.95
2019-02-25T10:02:08.057Z,100115.80
2019-02-25T10:04:37.451Z,100125.13
2019-02-25T10:07:06.945Z,100122.68
2019-02-25T10:09:36.337Z,100115.27
2019-02-25T10:12:05.722Z,100106.88
2019-02-25T10:14:35.141Z,100100.43
2019-02-25T10:17:04.517Z,100100.43
2019-02-25T10:19:34.879Z,100094.87
2019-02-25T10:22:04.306Z,100093.47
2019-02-25T10:24:33.680Z,100093.47
2019-02-25T10:27:03.119Z,100090.05
2019-02-25T10:29:32.541Z,100080.34
2019-02-25T10:32:03.864Z,100078.63
2019-02-25T10:34:33.114Z,100083.20
2019-02-25T10:37:02.490Z,100098.40
2019-02-25T10:39:31.865Z,100080.70
2019-02-25T10:42:01.762Z,100088.28
2019-02-25T10:44:31.897Z,100087.00
2019-02-25T10:47:02.500Z,100087.16
2019-02-25T10:49:33.679Z,100082.58
2019-02-25T10:52:03.235Z,100085.16
2019-02-25T10:54:32.646Z,100080.11
2019-02-25T10:57:08.340Z,100076.80
2019-02-25T10:59:39.521Z,100082.02
2019-02-25T11:02:11.051Z,100089.17
2019-02-25T11:04:40.207Z,100090.60
2019-02-25T11:07:09.792Z,100090.46
2019-02-25T11:10:01.803Z,100090.42
2019-02-25T11:12:32.154Z,100084.64
2019-02-25T11:15:01.653Z,100085.02
2019-02-25T11:17:31.049Z,100079.89
2019-02-25T11:20:03.059Z,100084.73
2019-02-25T11:22:31.633Z,100080.19
2019-02-25T11:25:01.171Z,100075.11
2019-02-25T11:27:33.064Z,100076.38
2019-02-25T11:30:01.977Z,100068.48
2019-02-25T11:32:32.302Z,100059.23
2019-02-25T11:35:03.966Z,100052.27
2019-02-25T11:37:32.836Z,100050.90
2019-02-25T11:40:04.268Z,100039.56
2019-02-25T11:42:33.545Z,100038.13
2019-02-25T11:45:04.497Z,100041.10
2019-02-25T11:47:34.173Z,100036.53
2019-02-25T11:50:04.225Z,100039.73
2019-02-25T11:52:33.599Z,100030.77
2019-02-25T11:55:03.029Z,100035.96
2019-02-25T11:57:32.509Z,100027.98
2019-02-25T12:00:02.027Z,100025.89
2019-02-25T12:02:31.437Z,100034.09
2019-02-25T12:05:00.884Z,100019.86
2019-02-25T12:07:30.308Z,100021.36
2019-02-25T12:09:59.782Z,100022.73
2019-02-25T12:12:29.225Z,100017.13
2019-02-25T12:14:58.636Z,100012.53
2019-02-25T12:17:28.030Z,100010.81
2019-02-25T12:19:57.616Z,100004.78
2019-02-25T12:22:26.984Z,100003.98
2019-02-25T12:24:56.405Z,99996.34
2019-02-25T12:27:25.796Z,99992.72
2019-02-25T12:29:55.264Z,99997.66
2019-02-25T12:32:24.728Z,99987.36
2019-02-25T12:34:54.566Z,99982.23
2019-02-25T12:37:23.973Z,99982.57
2019-02-25T12:39:53.393Z,99979.84
2019-02-25T12:42:22.852Z,99971.09
2019-02-25T12:44:52.339Z,99969.89
2019-02-25T12:47:21.771Z,99968.31
2019-02-25T12:49:51.156Z,99962.86
2019-02-25T12:52:20.566Z,99963.13
2019-02-25T12:54:50.195Z,99946.75
2019-02-25T12:57:20.220Z,99943.38
2019-02-25T12:59:52.363Z,99935.14
2019-02-25T13:02:22.690Z,99937.58
2019-02-25T13:04:52.066Z,99931.60
2019-02-25T13:07:21.454Z,99927.25
2019-02-25T13:09:50.899Z,99917.81
2019-02-25T13:12:20.340Z,99913.04
2019-02-25T13:14:49.792Z,99910.67
2019-02-25T13:17:19.221Z,99899.38
2019-02-25T13:19:48.694Z,99899.56
2019-02-25T13:22:18.158Z,99904.14
2019-02-25T13:24:47.630Z,99892.56
2019-02-25T13:27:17.044Z,99887.27
2019-02-25T13:29:46.691Z,99885.08
2019-02-25T13:32:16.074Z,99882.36
2019-02-25T13:34:45.751Z,99883.75
2019-02-25T13:37:15.106Z,99872.23
2019-02-25T13:39:44.547Z,99864.25
2019-02-25T13:42:13.957Z,99863.50
2019-02-25T13:44:43.379Z,99853.70
2019-02-25T13:47:12.795Z,99858.26
2019-02-25T13:49:42.152Z,99849.77
2019-02-25T13:52:11.825Z,99848.61
2019-02-25T13:54:41.296Z,99836.73
2019-02-25T13:57:10.745Z,99828.88
2019-02-25T13:59:40.132Z,99827.61
2019-02-25T14:02:09.588Z,99815.56
2019-02-25T14:04:38.982Z,99820.39
2019-02-25T14:07:08.486Z,99818.34
2019-02-25T14:09:38.046Z,99810.64
2019-02-25T14:12:07.810Z,99822.58
2019-02-25T14:14:37.229Z,99809.31
2019-02-25T14:17:06.634Z,99808.41
2019-02-25T14:19:36.347Z,99807.77
2019-02-25T14:22:05.990Z,99803.87
2019-02-25T14:24:35.358Z,99795.23
2019-02-25T14:27:04.910Z,99799.64
2019-02-25T14:29:34.450Z,99791.73
2019-02-25T14:32:03.864Z,99790.73
2019-02-25T14:34:33.428Z,99802.37
2019-02-25T14:37:04.750Z,99809.49
2019-02-25T14:39:35.995Z,99803.30
2019-02-25T14:42:06.818Z,99798.50
2019-02-25T14:44:38.162Z,99796.39
2019-02-25T14:47:19.579Z,99799.64
2019-02-25T14:49:40.414Z,99799.73
2019-02-25T14:52:10.589Z,99803.23
2019-02-25T14:54:39.960Z,99805.70
2019-02-25T14:57:09.345Z,99803.48
2019-02-25T14:59:40.671Z,99803.59
2019-02-25T15:02:11.119Z,99801.22
2019-02-25T15:04:41.779Z,99804.09
2019-02-25T15:07:13.503Z,99800.91
2019-02-25T15:09:43.607Z,99801.56
2019-02-25T15:12:14.275Z,99799.39
2019-02-25T15:14:43.747Z,99795.77
2019-02-25T15:17:14.854Z,99787.18
2019-02-25T15:19:44.303Z,99782.91
2019-02-25T15:22:14.158Z,99774.74
2019-02-25T15:24:44.429Z,99781.33
2019-02-25T15:27:14.733Z,99776.10
2019-02-25T15:29:45.136Z,99775.11
2019-02-25T15:32:16.129Z,99774.41
2019-02-25T15:34:46.485Z,99782.13
2019-02-25T15:37:16.908Z,99782.06
2019-02-25T15:39:46.285Z,99781.34
2019-02-25T15:42:17.051Z,99783.09
2019-02-25T15:44:47.203Z,99787.75
2019-02-25T15:47:17.833Z,99785.38
2019-02-25T15:49:48.138Z,99778.92
2019-02-25T15:52:18.722Z,99776.80
2019-02-25T15:54:48.795Z,99782.48
2019-02-25T15:57:18.218Z,99777.19
2019-02-25T15:59:47.582Z,99775.78
2019-02-25T16:02:17.120Z,99778.88
2019-02-25T16:04:46.608Z,99786.03
2019-02-25T16:07:16.026Z,99781.20
2019-02-25T16:09:45.838Z,99785.77
2019-02-25T16:12:15.274Z,99786.88
2019-02-25T16:14:46.702Z,99792.30
2019-02-25T16:17:16.723Z,99800.78
2019-02-25T16:19:48.138Z,99803.55
2019-02-25T16:22:17.211Z,99808.17
2019-02-25T16:24:46.609Z,99806.52
2019-02-25T16:27:16.877Z,99808.97
2019-02-25T16:29:47.412Z,99807.34
2019-02-25T16:32:17.075Z,99816.58
2019-02-25T16:34:47.392Z,99810.34
2019-02-25T16:37:17.674Z,99816.05
2019-02-25T16:39:55.589Z,99817.37
2019-02-25T16:42:26.261Z,99812.23
2019-02-25T16:44:57.489Z,99811.69
2019-02-25T16:47:32.845Z,99816.04
2019-02-25T16:50:00.773Z,99811.70
2019-02-25T16:52:30.923Z,99809.00
2019-02-25T16:55:00.383Z,99802.77
2019-02-25T16:57:29.975Z,99807.11
2019-02-25T17:00:02.249Z,99804.95
2019-02-25T17:02:33.752Z,99805.77
2019-02-25T17:05:02.306Z,99806.58
2019-02-25T17:07:31.927Z,99810.37
2019-02-25T17:10:03.195Z,99821.20
2019-02-25T17:12:32.506Z,99817.64
2019-02-25T17:15:02.022Z,99823.34
2019-02-25T17:17:31.466Z,99827.42
2019-02-25T17:20:00.915Z,99828.75
2019-02-25T17:22:30.437Z,99821.95
2019-02-25T17:25:00.385Z,99823.59
2019-02-25T17:27:31.097Z,99822.48
2019-02-25T17:30:00.475Z,99825.99
2019-02-25T17:32:29.962Z,99818.95
2019-02-25T17:35:00.305Z,99825.91
2019-02-25T17:37:31.560Z,99828.52
2019-02-25T17:40:05.769Z,99823.85
2019-02-25T17:42:33.549Z,99817.59
2019-02-25T17:45:05.026Z,99815.92
2019-02-25T17:47:35.137Z,99822.11
2019-02-25T17:50:08.664Z,99826.70
2019-02-25T17:52:39.943Z,99828.33
2019-02-25T17:55:12.847Z,99826.08
2019-02-25T17:57:42.313Z,99825.48
2019-02-25T18:00:17.265Z,99829.75
2019-02-25T18:02:46.872Z,99833.14
2019-02-25T18:05:18.558Z,99832.42
2019-02-25T18:07:48.652Z,99839.05
2019-02-25T18:10:18.217Z,99837.36
2019-02-25T18:12:47.672Z,99832.36
2019-02-25T18:15:22.000Z,99831.19
2019-02-25T18:17:53.550Z,99834.61
2019-02-25T18:20:23.705Z,99836.91
2019-02-25T18:22:53.139Z,99832.69
2019-02-25T18:25:22.509Z,99830.67
2019-02-25T18:27:52.288Z,99831.66
2019-02-25T18:30:23.946Z,99829.92
2019-02-25T18:32:55.189Z,99831.88
2019-02-25T18:35:24.793Z,99834.47
2019-02-25T18:37:54.833Z,99835.81
2019-02-25T18:40:24.564Z,99833.23
2019-02-25T18:42:53.961Z,99833.23
2019-02-25T18:45:25.396Z,99829.20
2019-02-25T18:47:54.602Z,99833.06
2019-02-25T18:50:26.347Z,99837.30
2019-02-25T18:52:57.189Z,99831.29
2019-02-25T18:55:27.626Z,99836.49
2019-02-25T18:57:58.334Z,99838.91
2019-02-25T19:00:40.113Z,99839.88
2019-02-25T19:03:10.335Z,99838.24
2019-02-25T19:05:39.788Z,99842.41
2019-02-25T19:08:15.073Z,99842.41
2019-02-25T19:10:47.629Z,99839.86
2019-02-25T19:13:20.198Z,99837.75
2019-02-25T19:15:48.782Z,99838.11
2019-02-25T19:18:19.114Z,99847.99
2019-02-25T19:20:48.871Z,99844.84
2019-02-25T19:23:18.483Z,99855.77
2019-02-25T19:25:47.874Z,99855.77
2019-02-25T19:28:19.702Z,99849.00
2019-02-25T19:30:50.689Z,99853.23
2019-02-25T19:33:20.657Z,99858.11
2019-02-25T19:35:50.256Z,99851.11
2019-02-25T19:38:21.380Z,99850.38
2019-02-25T19:40:53.057Z,99850.38
2019-02-25T19:43:22.344Z,99853.18
2019-02-25T19:45:51.736Z,99855.98
2019-02-25T19:48:22.688Z,99855.98
2019-02-25T19:50:54.049Z,99888.66
2019-02-25T19:53:23.865Z,99858.92
2019-02-25T19:55:53.841Z,99858.92
2019-02-25T19:58:24.209Z,99847.54
2019-02-25T20:00:59.040Z,99850.00
2019-02-25T20:03:26.047Z,99849.81
2019-02-25T20:05:56.404Z,99854.55
2019-02-25T20:08:25.989Z,99850.70
2019-02-25T20:10:55.367Z,99847.89
2019-02-25T20:13:24.774Z,99847.89
2019-02-25T20:15:55.750Z,99850.90
2019-02-25T20:18:25.233Z,99854.86
2019-02-25T20:20:55.447Z,99845.30
2019-02-25T20:23:26.745Z,99854.73
2019-02-25T20:25:57.816Z,99857.89
2019-02-25T20:28:27.296Z,99857.89
2019-02-25T20:30:56.940Z,99856.36
2019-02-25T20:33:30.475Z,99853.14
2019-02-25T20:35:58.925Z,99846.67
2019-02-25T20:38:29.618Z,99846.67
2019-02-25T20:41:02.279Z,99848.34
2019-02-25T20:43:32.501Z,99851.20
2019-02-25T20:46:03.995Z,99847.98
2019-02-25T20:48:33.117Z,99844.22
2019-02-25T20:51:04.238Z,99847.41
2019-02-25T20:53:34.030Z,99845.59
2019-02-25T20:56:03.633Z,99846.45
2019-02-25T20:58:33.030Z,99844.55
2019-02-25T21:01:05.288Z,99837.41
2019-02-25T21:03:33.548Z,99836.06
2019-02-25T21:06:03.232Z,99834.05
2019-02-25T21:08:32.602Z,99842.91
2019-02-25T21:11:06.980Z,99840.79
2019-02-25T21:13:33.616Z,99844.90
2019-02-25T21:16:04.828Z,99840.61
2019-02-25T21:18:35.538Z,99838.06
2019-02-25T21:21:07.116Z,99846.19
2019-02-25T21:23:36.226Z,99847.04
2019-02-25T21:26:07.426Z,99848.97
2019-02-25T21:28:38.144Z,99855.83
2019-02-25T21:31:13.590Z,99850.98
2019-02-25T21:33:39.176Z,99851.64
2019-02-25T21:36:08.608Z,99850.90
2019-02-25T21:38:37.978Z,99846.00
2019-02-25T21:41:08.979Z,99850.45
2019-02-25T21:43:38.519Z,99862.16
2019-02-25T21:46:07.910Z,99868.32
2019-02-25T21:48:37.396Z,99869.63
2019-02-25T21:51:08.023Z,99870.66
2019-02-25T21:53:38.170Z,99865.75
2019-02-25T21:56:07.544Z,99866.27
2019-02-25T21:58:36.972Z,99869.13
2019-02-25T22:01:06.378Z,99865.18
2019-02-25T22:03:39.484Z,99866.45
2019-02-25T22:06:06.908Z,99867.17
2019-02-25T22:08:36.348Z,99867.98
2019-02-25T22:11:12.332Z,99871.37
2019-02-25T22:13:36.898Z,99869.84
2019-02-25T22:16:07.992Z,99858.84
2019-02-25T22:18:37.479Z,99865.31
2019-02-25T22:21:09.259Z,99864.34
2019-02-25T22:23:38.023Z,99860.60
2019-02-25T22:26:07.427Z,99861.92
2019-02-25T22:28:37.599Z,99854.86
2019-02-25T22:31:10.346Z,99861.19
2019-02-25T22:33:39.379Z,99866.42
2019-02-25T22:36:08.779Z,99865.42
2019-02-25T22:38:38.150Z,99860.48
2019-02-25T22:41:07.587Z,99858.22
2019-02-25T22:43:39.046Z,99852.78
2019-02-25T22:46:11.186Z,99855.47
2019-02-25T22:48:42.018Z,99848.19
2019-02-25T22:51:10.450Z,99851.75
2019-02-25T22:53:39.869Z,99849.16
2019-02-25T22:56:13.298Z,99843.20
2019-02-25T22:58:42.773Z,99846.25
2019-02-25T23:01:18.066Z,99846.59
2019-02-25T23:03:47.898Z,99844.33
2019-02-25T23:06:19.149Z,99852.42
2019-02-25T23:08:51.047Z,99854.64
2019-02-25T23:11:22.050Z,99860.70
2019-02-25T23:13:52.518Z,99857.53
2019-02-25T23:16:25.415Z,99855.08
2019-02-25T23:18:54.026Z,99861.82
2019-02-25T23:21:26.339Z,99861.22
2019-02-25T23:23:55.901Z,99866.27
2019-02-25T23:26:25.733Z,99859.06
2019-02-25T23:28:55.991Z,99863.07
2019-02-25T23:31:29.632Z,99867.30
2019-02-25T23:33:57.300Z,99865.16
2019-02-25T23:36:26.704Z,99869.36
2019-02-25T23:38:57.130Z,99858.80
2019-02-25T23:41:29.405Z,99866.11
2019-02-25T23:43:58.336Z,99861.28
2019-02-25T23:46:29.801Z,99852.43
2019-02-25T23:48:58.835Z,99844.06
2019-02-25T23:51:28.250Z,99857.66
2019-02-25T23:53:57.751Z,99855.10
2019-02-25T23:56:27.956Z,99842.65
2019-02-25T23:58:58.331Z,99841.61
